createdAt,value
2019-02-24T00:02:12.326Z,9.03
2019-02-24T00:06:17.643Z,9.07
2019-02-24T00:10:23.181Z,9.30
2019-02-24T00:14:28.916Z,8.70
2019-02-24T00:18:34.419Z,9.33
2019-02-24T00:22:39.896Z,8.50
2019-02-24T00:26:46.596Z,8.80
2019-02-24T00:30:52.333Z,8.90
2019-02-24T00:34:57.839Z,8.93
2019-02-24T00:39:05.696Z,8.00
2019-02-24T00:43:11.626Z,8.80
2019-02-24T00:47:16.994Z,8.67
2019-02-24T00:51:22.480Z,8.77
2019-02-24T00:55:27.907Z,9.43
2019-02-24T00:59:33.397Z,8.63
2019-02-24T01:03:39.295Z,8.20
2019-02-24T01:07:45.034Z,8.13
2019-02-24T01:11:50.528Z,9.67
2019-02-24T01:15:55.917Z,9.37
2019-02-24T01:20:01.388Z,8.00
2019-02-24T01:24:06.870Z,8.50
2019-02-24T01:28:12.493Z,8.43
2019-02-24T01:32:17.964Z,8.00
2019-02-24T01:36:23.404Z,8.37
2019-02-24T01:40:29.020Z,8.43
2019-02-24T01:44:34.463Z,8.23
2019-02-24T01:48:39.732Z,9.23
2019-02-24T01:52:45.185Z,7.50
2019-02-24T01:56:50.753Z,8.07
2019-02-24T02:00:56.288Z,8.20
2019-02-24T02:05:01.972Z,8.27
2019-02-24T02:09:08.210Z,8.17
2019-02-24T02:13:13.617Z,7.73
2019-02-24T02:17:19.077Z,7.57
2019-02-24T02:21:24.375Z,7.40
2019-02-24T02:25:29.846Z,7.67
2019-02-24T02:29:35.539Z,7.23
2019-02-24T02:33:41.512Z,7.90
2019-02-24T02:37:46.974Z,7.50
2019-02-24T02:41:52.489Z,7.47
2019-02-24T02:45:58.031Z,7.43
2019-02-24T02:50:03.520Z,7.77
2019-02-24T02:54:08.953Z,8.27
2019-02-24T02:58:14.403Z,7.80
2019-02-24T03:02:24.348Z,7.37
2019-02-24T03:06:35.355Z,7.27
2019-02-24T03:10:40.763Z,7.53
2019-02-24T03:14:46.356Z,7.63
2019-02-24T03:18:52.025Z,7.73
2019-02-24T03:22:57.530Z,6.80
2019-02-24T03:27:02.907Z,7.73
2019-02-24T03:31:08.282Z,7.47
2019-02-24T03:35:13.749Z,6.87
2019-02-24T03:39:19.135Z,7.50
2019-02-24T03:43:24.924Z,7.10
2019-02-24T03:47:30.435Z,7.90
2019-02-24T03:51:36.170Z,6.70
2019-02-24T03:55:41.852Z,7.33
2019-02-24T03:59:47.344Z,7.60
2019-02-24T04:03:52.777Z,7.27
2019-02-24T04:07:58.231Z,7.07
2019-02-24T04:12:03.697Z,7.07
2019-02-24T04:16:09.549Z,6.47
2019-02-24T04:20:14.958Z,7.50
2019-02-24T04:24:20.340Z,6.80
2019-02-24T04:28:26.017Z,6.17
2019-02-24T04:32:31.832Z,6.90
2019-02-24T04:36:37.520Z,7.73
2019-02-24T04:40:42.866Z,7.03
2019-02-24T04:44:48.331Z,7.23
2019-02-24T04:48:53.663Z,7.00
2019-02-24T04:52:59.088Z,6.33
2019-02-24T04:57:04.350Z,7.10
2019-02-24T05:01:10.157Z,6.97
2019-02-24T05:05:15.868Z,7.27
2019-02-24T05:09:21.314Z,6.33
2019-02-24T05:13:26.980Z,6.17
2019-02-24T05:17:32.377Z,6.87
2019-02-24T05:21:37.727Z,6.43
2019-02-24T05:25:43.191Z,6.23
2019-02-24T05:29:48.648Z,6.73
2019-02-24T05:33:54.097Z,6.17
2019-02-24T05:37:59.476Z,6.97
2019-02-24T05:42:04.939Z,6.90
2019-02-24T05:46:10.428Z,6.30
2019-02-24T05:50:15.857Z,6.47
2019-02-24T05:54:21.295Z,6.17
2019-02-24T05:58:26.586Z,6.33
2019-02-24T06:02:32.039Z,5.93
2019-02-24T06:06:37.390Z,6.40
2019-02-24T06:10:42.844Z,6.23
2019-02-24T06:14:48.129Z,6.47
2019-02-24T06:18:53.827Z,6.27
2019-02-24T06:22:59.243Z,6.27
2019-02-24T06:27:04.807Z,6.20
2019-02-24T06:31:10.338Z,5.57
2019-02-24T06:35:15.760Z,6.13
2019-02-24T06:39:21.178Z,6.57
2019-02-24T06:43:26.625Z,6.20
2019-02-24T06:47:32.431Z,6.90
2019-02-24T06:51:37.799Z,6.27
2019-02-24T06:55:43.237Z,6.30
2019-02-24T06:59:48.500Z,6.00
2019-02-24T07:03:54.675Z,6.33
2019-02-24T07:08:00.515Z,5.77
2019-02-24T07:12:06.406Z,6.27
2019-02-24T07:16:11.749Z,7.13
2019-02-24T07:20:17.567Z,6.70
2019-02-24T07:24:23.073Z,5.93
2019-02-24T07:28:28.533Z,5.83
2019-02-24T07:32:34.147Z,5.87
2019-02-24T07:36:39.436Z,5.77
2019-02-24T07:40:46.413Z,6.00
2019-02-24T07:44:51.891Z,5.63
2019-02-24T07:48:57.316Z,5.90
2019-02-24T07:53:02.671Z,5.47
2019-02-24T07:57:08.123Z,5.57
2019-02-24T08:01:13.525Z,5.40
2019-02-24T08:05:18.987Z,5.30
2019-02-24T08:09:24.964Z,5.77
2019-02-24T08:13:30.412Z,6.07
2019-02-24T08:17:35.748Z,5.50
2019-02-24T08:21:41.305Z,5.60
2019-02-24T08:25:47.018Z,5.20
2019-02-24T08:29:52.379Z,5.40
2019-02-24T08:33:57.720Z,5.07
2019-02-24T08:38:03.207Z,5.67
2019-02-24T08:42:08.635Z,5.40
2019-02-24T08:46:14.397Z,4.83
2019-02-24T08:50:19.777Z,5.37
2019-02-24T08:54:25.276Z,4.60
2019-02-24T08:58:30.804Z,5.20
2019-02-24T09:02:36.343Z,5.20
2019-02-24T09:06:42.025Z,5.10
2019-02-24T09:10:47.798Z,5.30
2019-02-24T09:14:54.029Z,5.10
2019-02-24T09:18:59.484Z,4.90
2019-02-24T09:23:05.294Z,4.73
2019-02-24T09:27:10.745Z,5.23
2019-02-24T09:31:16.495Z,5.17
2019-02-24T09:35:22.187Z,4.80
2019-02-24T09:39:28.208Z,5.23
2019-02-24T09:43:33.759Z,4.30
2019-02-24T09:47:46.434Z,4.40
2019-02-24T09:51:46.456Z,4.70
2019-02-24T09:55:51.895Z,4.20
2019-02-24T09:59:57.807Z,4.73
2019-02-24T10:04:03.565Z,4.07
2019-02-24T10:08:09.453Z,4.57
2019-02-24T10:12:15.331Z,4.33
2019-02-24T10:16:21.111Z,4.40
2019-02-24T10:20:27.044Z,4.57
2019-02-24T10:24:33.782Z,4.70
2019-02-24T10:28:39.628Z,4.10
2019-02-24T10:32:45.112Z,4.87
2019-02-24T10:36:50.918Z,3.60
2019-02-24T10:40:56.395Z,4.03
2019-02-24T10:45:02.014Z,4.13
2019-02-24T10:49:07.468Z,3.97
2019-02-24T10:53:13.044Z,4.00
2019-02-24T10:57:18.463Z,4.00
2019-02-24T11:01:29.760Z,3.20
2019-02-24T11:05:31.561Z,3.83
2019-02-24T11:09:37.470Z,4.40
2019-02-24T11:13:43.571Z,3.20
2019-02-24T11:17:49.236Z,4.20
2019-02-24T11:21:55.074Z,3.70
2019-02-24T11:26:00.858Z,3.43
2019-02-24T11:30:07.051Z,3.40
2019-02-24T11:34:12.945Z,3.40
2019-02-24T11:38:18.733Z,3.60
2019-02-24T11:42:24.182Z,3.53
2019-02-24T11:46:29.599Z,3.57
2019-02-24T11:50:35.044Z,3.40
2019-02-24T11:54:40.512Z,3.00
2019-02-24T11:58:45.980Z,3.60
2019-02-24T12:02:51.488Z,3.10
2019-02-24T12:06:57.038Z,3.50
2019-02-24T12:11:02.503Z,3.27
2019-02-24T12:15:09.543Z,3.03
2019-02-24T12:19:15.046Z,3.70
2019-02-24T12:23:21.112Z,3.20
2019-02-24T12:27:26.498Z,3.58
2019-02-24T12:31:31.950Z,3.35
2019-02-24T12:35:37.370Z,2.90
2019-02-24T12:39:42.979Z,2.90
2019-02-24T12:43:48.338Z,2.80
2019-02-24T12:47:53.815Z,3.10
2019-02-24T12:51:59.289Z,2.60
2019-02-24T12:56:04.740Z,2.77
2019-02-24T13:00:15.095Z,3.20
2019-02-24T13:04:20.679Z,2.97
2019-02-24T13:08:26.190Z,2.40
2019-02-24T13:12:31.695Z,2.50
2019-02-24T13:16:37.128Z,2.45
2019-02-24T13:20:42.528Z,2.83
2019-02-24T13:24:48.481Z,2.37
2019-02-24T13:28:53.861Z,2.55
2019-02-24T13:32:59.357Z,2.45
2019-02-24T13:37:04.817Z,2.80
2019-02-24T13:41:10.305Z,2.45
2019-02-24T13:45:16.265Z,2.60
2019-02-24T13:49:21.726Z,2.58
2019-02-24T13:53:27.139Z,2.08
2019-02-24T13:57:32.522Z,2.42
2019-02-24T14:01:38.224Z,2.65
2019-02-24T14:05:43.798Z,2.40
2019-02-24T14:09:49.249Z,2.72
2019-02-24T14:13:54.841Z,2.30
2019-02-24T14:18:00.265Z,2.00
2019-02-24T14:22:05.885Z,2.20
2019-02-24T14:26:11.906Z,2.12
2019-02-24T14:30:17.411Z,2.40
2019-02-24T14:34:23.131Z,2.02
2019-02-24T14:38:28.607Z,1.95
2019-02-24T14:42:34.054Z,1.90
2019-02-24T14:46:39.543Z,2.17
2019-02-24T14:50:45.008Z,2.00
2019-02-24T14:54:50.568Z,1.80
2019-02-24T14:59:01.809Z,1.77
2019-02-24T15:03:07.406Z,2.00
2019-02-24T15:07:12.941Z,2.00
2019-02-24T15:11:18.767Z,2.17
2019-02-24T15:15:32.416Z,2.12
2019-02-24T15:19:31.939Z,2.22
2019-02-24T15:23:37.388Z,2.30
2019-02-24T15:27:43.179Z,2.90
2019-02-24T15:31:48.558Z,2.70
2019-02-24T15:35:53.990Z,2.27
2019-02-24T15:39:59.442Z,2.45
2019-02-24T15:44:04.954Z,2.35
2019-02-24T15:48:10.523Z,1.75
2019-02-24T15:52:16.327Z,2.20
2019-02-24T15:56:21.788Z,2.00
2019-02-24T16:00:27.266Z,1.85
2019-02-24T16:04:33.001Z,2.00
2019-02-24T16:08:38.682Z,1.95
2019-02-24T16:12:44.138Z,1.72
2019-02-24T16:16:49.936Z,1.92
2019-02-24T16:20:55.390Z,2.20
2019-02-24T16:25:00.858Z,1.67
2019-02-24T16:29:06.603Z,2.12
2019-02-24T16:33:12.354Z,1.90
2019-02-24T16:37:18.175Z,2.12
2019-02-24T16:41:23.580Z,2.12
2019-02-24T16:45:29.078Z,2.12
2019-02-24T16:49:34.773Z,1.80
2019-02-24T16:53:40.236Z,2.20
2019-02-24T16:57:46.041Z,2.65
2019-02-24T17:01:54.552Z,3.22
2019-02-24T17:06:00.417Z,3.67
2019-02-24T17:10:06.489Z,3.92
2019-02-24T17:14:12.189Z,3.40
2019-02-24T17:18:19.568Z,3.60
2019-02-24T17:22:25.158Z,3.23
2019-02-24T17:26:31.102Z,3.53
2019-02-24T17:30:36.781Z,3.70
2019-02-24T17:34:44.673Z,3.60
2019-02-24T17:38:50.152Z,3.63
2019-02-24T17:42:55.622Z,3.43
2019-02-24T17:47:01.394Z,4.10
2019-02-24T17:51:06.824Z,4.53
2019-02-24T17:55:13.223Z,4.83
2019-02-24T17:59:18.600Z,4.30
2019-02-24T18:03:24.233Z,3.93
2019-02-24T18:07:29.726Z,3.87
2019-02-24T18:11:35.353Z,4.40
2019-02-24T18:15:41.272Z,6.43
2019-02-24T18:19:46.814Z,6.30
2019-02-24T18:23:56.515Z,6.47
2019-02-24T18:28:02.057Z,5.87
2019-02-24T18:32:07.498Z,5.20
2019-02-24T18:36:13.015Z,5.60
2019-02-24T18:40:18.490Z,5.10
2019-02-24T18:44:23.938Z,5.53
2019-02-24T18:48:29.496Z,5.67
2019-02-24T18:52:35.157Z,5.27
2019-02-24T18:56:40.737Z,5.73
2019-02-24T19:00:46.185Z,7.23
2019-02-24T19:04:52.061Z,12.43
2019-02-24T19:08:57.535Z,11.70
2019-02-24T19:13:03.050Z,11.27
2019-02-24T19:17:08.567Z,12.00
2019-02-24T19:21:14.053Z,11.83
2019-02-24T19:25:19.750Z,12.40
2019-02-24T19:29:25.224Z,9.60
2019-02-24T19:33:30.576Z,10.20
2019-02-24T19:37:35.998Z,8.80
2019-02-24T19:41:41.507Z,8.40
2019-02-24T19:45:47.002Z,7.43
2019-02-24T19:49:52.467Z,7.47
2019-02-24T19:53:58.097Z,7.43
2019-02-24T19:58:03.634Z,6.93
2019-02-24T20:02:09.531Z,7.27
2019-02-24T20:06:15.203Z,6.70
2019-02-24T20:10:21.984Z,6.80
2019-02-24T20:14:27.590Z,7.30
2019-02-24T20:18:33.061Z,7.00
2019-02-24T20:22:38.653Z,7.10
2019-02-24T20:26:45.693Z,7.30
2019-02-24T20:30:51.118Z,6.93
2019-02-24T20:34:56.521Z,7.27
2019-02-24T20:39:02.137Z,7.00
2019-02-24T20:43:07.694Z,7.83
2019-02-24T20:47:14.424Z,7.40
2019-02-24T20:51:20.882Z,7.40
2019-02-24T20:55:26.323Z,7.73
2019-02-24T20:59:32.046Z,8.30
2019-02-24T21:03:37.907Z,7.37
2019-02-24T21:07:43.877Z,8.97
2019-02-24T21:11:49.428Z,8.10
2019-02-24T21:15:54.942Z,7.93
2019-02-24T21:20:00.378Z,8.60
2019-02-24T21:24:05.854Z,7.93
2019-02-24T21:28:11.433Z,7.70
2019-02-24T21:32:16.899Z,8.00
2019-02-24T21:36:22.336Z,7.57
2019-02-24T21:40:27.798Z,7.57
2019-02-24T21:44:33.502Z,7.90
2019-02-24T21:48:39.331Z,7.33
2019-02-24T21:52:44.784Z,7.87
2019-02-24T21:56:51.514Z,7.00
2019-02-24T22:00:57.023Z,7.77
2019-02-24T22:05:02.495Z,7.17
2019-02-24T22:09:11.565Z,7.43
2019-02-24T22:13:17.014Z,7.17
2019-02-24T22:17:22.462Z,7.03
2019-02-24T22:21:27.988Z,7.03
2019-02-24T22:25:33.833Z,6.67
2019-02-24T22:29:39.529Z,6.63
2019-02-24T22:33:44.997Z,7.17
2019-02-24T22:37:50.532Z,6.70
2019-02-24T22:41:56.840Z,6.30
2019-02-24T22:46:03.157Z,6.97
2019-02-24T22:50:09.348Z,6.77
2019-02-24T22:54:14.846Z,6.13
2019-02-24T22:58:20.449Z,6.23
2019-02-24T23:02:26.034Z,6.03
2019-02-24T23:06:31.493Z,6.20
2019-02-24T23:10:37.023Z,6.60
2019-02-24T23:14:42.579Z,6.90
2019-02-24T23:18:48.360Z,6.13
2019-02-24T23:22:54.093Z,5.70
2019-02-24T23:26:59.530Z,5.70
2019-02-24T23:31:04.982Z,6.07
2019-02-24T23:35:10.564Z,5.93
2019-02-24T23:39:17.985Z,5.80
2019-02-24T23:43:23.428Z,6.20
2019-02-24T23:47:28.930Z,6.10
2019-02-24T23:51:34.771Z,5.30
2019-02-24T23:55:40.511Z,6.33
2019-02-24T23:59:46.231Z,6.40
